sensor_id;sensor_type;location;lat;lon;timestamp;P1;durP1;ratioP1;P2;durP2;ratioP2
33184;SDS011;19550;42.872;25.494;2022-09-09T00:01:14;10.70;;;7.15;;
33184;SDS011;19550;42.872;25.494;2022-09-09T00:03:57;8.30;;;6.47;;
33184;SDS011;19550;42.872;25.494;2022-09-09T00:06:30;12.32;;;6.75;;
33184;SDS011;19550;42.872;25.494;2022-09-09T00:09:01;9.65;;;6.50;;
33184;SDS011;19550;42.872;25.494;2022-09-09T00:11:35;13.82;;;7.43;;
33184;SDS011;19550;42.872;25.494;2022-09-09T00:14:09;9.80;;;6.88;;
33184;SDS011;19550;42.872;25.494;2022-09-09T00:16:44;11.00;;;6.85;;
33184;SDS011;19550;42.872;25.494;2022-09-09T00:19:19;9.63;;;6.60;;
33184;SDS011;19550;42.872;25.494;2022-09-09T00:21:53;9.30;;;6.03;;
33184;SDS011;19550;42.872;25.494;2022-09-09T00:24:27;9.38;;;6.85;;
33184;SDS011;19550;42.872;25.494;2022-09-09T00:27:01;11.07;;;7.45;;
33184;SDS011;19550;42.872;25.494;2022-09-09T00:29:33;7.63;;;6.50;;
33184;SDS011;19550;42.872;25.494;2022-09-09T00:32:11;7.57;;;6.40;;
33184;SDS011;19550;42.872;25.494;2022-09-09T00:34:43;12.55;;;7.45;;
33184;SDS011;19550;42.872;25.494;2022-09-09T00:37:14;8.00;;;6.57;;
33184;SDS011;19550;42.872;25.494;2022-09-09T00:39:42;10.95;;;6.78;;
33184;SDS011;19550;42.872;25.494;2022-09-09T00:42:13;11.18;;;6.20;;
33184;SDS011;19550;42.872;25.494;2022-09-09T00:44:46;9.65;;;6.82;;
33184;SDS011;19550;42.872;25.494;2022-09-09T00:47:25;15.30;;;6.32;;
33184;SDS011;19550;42.872;25.494;2022-09-09T00:50:13;10.05;;;6.68;;
33184;SDS011;19550;42.872;25.494;2022-09-09T00:52:53;10.63;;;7.15;;
33184;SDS011;19550;42.872;25.494;2022-09-09T00:55:33;7.95;;;6.35;;
33184;SDS011;19550;42.872;25.494;2022-09-09T00:58:09;10.85;;;6.28;;
33184;SDS011;19550;42.872;25.494;2022-09-09T01:00:38;8.32;;;5.93;;
33184;SDS011;19550;42.872;25.494;2022-09-09T01:03:25;10.02;;;6.07;;
33184;SDS011;19550;42.872;25.494;2022-09-09T01:06:01;12.15;;;7.20;;
33184;SDS011;19550;42.872;25.494;2022-09-09T01:11:23;11.30;;;6.97;;
33184;SDS011;19550;42.872;25.494;2022-09-09T01:13:56;12.30;;;6.43;;
33184;SDS011;19550;42.872;25.494;2022-09-09T01:16:28;11.30;;;6.63;;
33184;SDS011;19550;42.872;25.494;2022-09-09T01:18:57;7.43;;;6.25;;
33184;SDS011;19550;42.872;25.494;2022-09-09T01:21:27;11.32;;;6.95;;
33184;SDS011;19550;42.872;25.494;2022-09-09T01:24:13;11.02;;;6.68;;
33184;SDS011;19550;42.872;25.494;2022-09-09T01:26:48;8.43;;;6.55;;
33184;SDS011;19550;42.872;25.494;2022-09-09T01:29:18;17.30;;;6.80;;
33184;SDS011;19550;42.872;25.494;2022-09-09T01:31:52;12.38;;;6.70;;
33184;SDS011;19550;42.872;25.494;2022-09-09T01:34:20;8.18;;;6.32;;
33184;SDS011;19550;42.872;25.494;2022-09-09T01:36:50;11.90;;;6.05;;
33184;SDS011;19550;42.872;25.494;2022-09-09T01:39:23;10.23;;;6.68;;
33184;SDS011;19550;42.872;25.494;2022-09-09T01:41:52;9.98;;;6.82;;
33184;SDS011;19550;42.872;25.494;2022-09-09T01:44:21;8.52;;;6.60;;
33184;SDS011;19550;42.872;25.494;2022-09-09T01:46:49;7.43;;;5.78;;
33184;SDS011;19550;42.872;25.494;2022-09-09T01:49:16;15.38;;;7.28;;
33184;SDS011;19550;42.872;25.494;2022-09-09T01:51:43;9.45;;;6.38;;
33184;SDS011;19550;42.872;25.494;2022-09-09T01:54:15;11.15;;;7.45;;
33184;SDS011;19550;42.872;25.494;2022-09-09T01:56:43;8.18;;;6.53;;
33184;SDS011;19550;42.872;25.494;2022-09-09T01:59:24;10.43;;;6.63;;
33184;SDS011;19550;42.872;25.494;2022-09-09T02:02:09;7.80;;;6.00;;
33184;SDS011;19550;42.872;25.494;2022-09-09T02:04:39;12.45;;;6.13;;
33184;SDS011;19550;42.872;25.494;2022-09-09T02:07:10;9.75;;;6.35;;
33184;SDS011;19550;42.872;25.494;2022-09-09T02:09:49;7.93;;;6.07;;
33184;SDS011;19550;42.872;25.494;2022-09-09T02:12:23;9.00;;;6.35;;
33184;SDS011;19550;42.872;25.494;2022-09-09T02:14:56;7.88;;;6.40;;
33184;SDS011;19550;42.872;25.494;2022-09-09T02:17:28;12.30;;;6.70;;
33184;SDS011;19550;42.872;25.494;2022-09-09T02:19:59;11.55;;;6.68;;
33184;SDS011;19550;42.872;25.494;2022-09-09T02:22:31;9.80;;;6.68;;
33184;SDS011;19550;42.872;25.494;2022-09-09T02:25:00;10.27;;;7.23;;
33184;SDS011;19550;42.872;25.494;2022-09-09T02:27:30;7.97;;;7.18;;
33184;SDS011;19550;42.872;25.494;2022-09-09T02:29:59;7.65;;;6.78;;
33184;SDS011;19550;42.872;25.494;2022-09-09T02:32:28;9.90;;;6.47;;
33184;SDS011;19550;42.872;25.494;2022-09-09T02:34:57;9.07;;;6.80;;
33184;SDS011;19550;42.872;25.494;2022-09-09T02:37:30;7.70;;;5.85;;
33184;SDS011;19550;42.872;25.494;2022-09-09T02:40:02;9.77;;;7.03;;
33184;SDS011;19550;42.872;25.494;2022-09-09T02:42:29;13.27;;;7.10;;
33184;SDS011;19550;42.872;25.494;2022-09-09T02:44:56;9.85;;;7.28;;
33184;SDS011;19550;42.872;25.494;2022-09-09T02:47:26;10.85;;;6.85;;
33184;SDS011;19550;42.872;25.494;2022-09-09T02:50:05;14.93;;;7.13;;
33184;SDS011;19550;42.872;25.494;2022-09-09T02:52:40;12.65;;;6.35;;
33184;SDS011;19550;42.872;25.494;2022-09-09T02:55:16;10.57;;;6.38;;
33184;SDS011;19550;42.872;25.494;2022-09-09T02:57:50;9.50;;;6.28;;
33184;SDS011;19550;42.872;25.494;2022-09-09T03:00:23;8.90;;;6.35;;
33184;SDS011;19550;42.872;25.494;2022-09-09T03:02:51;8.68;;;6.20;;
33184;SDS011;19550;42.872;25.494;2022-09-09T03:05:19;9.93;;;6.75;;
33184;SDS011;19550;42.872;25.494;2022-09-09T03:07:46;8.63;;;6.28;;
33184;SDS011;19550;42.872;25.494;2022-09-09T03:10:14;9.57;;;6.60;;
33184;SDS011;19550;42.872;25.494;2022-09-09T03:12:41;12.73;;;6.82;;
33184;SDS011;19550;42.872;25.494;2022-09-09T03:15:08;10.75;;;6.85;;
33184;SDS011;19550;42.872;25.494;2022-09-09T03:17:37;8.88;;;6.82;;
33184;SDS011;19550;42.872;25.494;2022-09-09T03:20:04;9.70;;;6.50;;
33184;SDS011;19550;42.872;25.494;2022-09-09T03:22:32;9.23;;;6.45;;
33184;SDS011;19550;42.872;25.494;2022-09-09T03:24:59;11.77;;;7.10;;
33184;SDS011;19550;42.872;25.494;2022-09-09T03:27:28;11.17;;;6.63;;
33184;SDS011;19550;42.872;25.494;2022-09-09T03:29:55;11.18;;;6.72;;
33184;SDS011;19550;42.872;25.494;2022-09-09T03:32:22;11.38;;;6.70;;
33184;SDS011;19550;42.872;25.494;2022-09-09T03:34:52;9.35;;;6.63;;
33184;SDS011;19550;42.872;25.494;2022-09-09T03:37:19;7.65;;;6.50;;
33184;SDS011;19550;42.872;25.494;2022-09-09T03:39:47;19.85;;;7.13;;
33184;SDS011;19550;42.872;25.494;2022-09-09T03:42:14;9.93;;;7.25;;
33184;SDS011;19550;42.872;25.494;2022-09-09T03:44:43;11.48;;;6.72;;
33184;SDS011;19550;42.872;25.494;2022-09-09T03:47:13;8.07;;;7.28;;
33184;SDS011;19550;42.872;25.494;2022-09-09T03:49:40;8.95;;;7.10;;
33184;SDS011;19550;42.872;25.494;2022-09-09T03:52:09;7.38;;;6.18;;
33184;SDS011;19550;42.872;25.494;2022-09-09T03:54:36;10.00;;;7.10;;
33184;SDS011;19550;42.872;25.494;2022-09-09T03:57:03;14.10;;;7.13;;
33184;SDS011;19550;42.872;25.494;2022-09-09T03:59:31;12.15;;;6.80;;
33184;SDS011;19550;42.872;25.494;2022-09-09T04:01:58;10.90;;;6.20;;
33184;SDS011;19550;42.872;25.494;2022-09-09T04:04:25;9.55;;;6.45;;
33184;SDS011;19550;42.872;25.494;2022-09-09T04:06:52;18.00;;;10.07;;
33184;SDS011;19550;42.872;25.494;2022-09-09T04:09:20;22.05;;;15.82;;
33184;SDS011;19550;42.872;25.494;2022-09-09T04:11:47;14.68;;;10.05;;
33184;SDS011;19550;42.872;25.494;2022-09-09T04:14:14;16.60;;;10.23;;
33184;SDS011;19550;42.872;25.494;2022-09-09T04:16:41;13.77;;;8.77;;
33184;SDS011;19550;42.872;25.494;2022-09-09T04:19:10;9.77;;;7.63;;
33184;SDS011;19550;42.872;25.494;2022-09-09T04:21:38;14.30;;;8.35;;
33184;SDS011;19550;42.872;25.494;2022-09-09T04:24:06;15.27;;;12.48;;
33184;SDS011;19550;42.872;25.494;2022-09-09T04:26:35;10.80;;;8.68;;
33184;SDS011;19550;42.872;25.494;2022-09-09T04:29:03;12.85;;;9.48;;
33184;SDS011;19550;42.872;25.494;2022-09-09T04:31:32;23.42;;;16.35;;
33184;SDS011;19550;42.872;25.494;2022-09-09T04:33:59;16.20;;;11.65;;
33184;SDS011;19550;42.872;25.494;2022-09-09T04:36:30;18.77;;;12.52;;
33184;SDS011;19550;42.872;25.494;2022-09-09T04:38:57;9.82;;;8.18;;
33184;SDS011;19550;42.872;25.494;2022-09-09T04:41:23;17.67;;;9.30;;
33184;SDS011;19550;42.872;25.494;2022-09-09T04:43:52;10.13;;;8.30;;
33184;SDS011;19550;42.872;25.494;2022-09-09T04:46:19;10.90;;;7.68;;
33184;SDS011;19550;42.872;25.494;2022-09-09T04:48:45;13.48;;;8.45;;
33184;SDS011;19550;42.872;25.494;2022-09-09T04:51:14;11.48;;;8.25;;
33184;SDS011;19550;42.872;25.494;2022-09-09T04:53:41;12.73;;;8.82;;
33184;SDS011;19550;42.872;25.494;2022-09-09T04:56:09;9.85;;;8.15;;
33184;SDS011;19550;42.872;25.494;2022-09-09T04:58:37;19.17;;;8.82;;
33184;SDS011;19550;42.872;25.494;2022-09-09T05:01:09;11.68;;;8.05;;
33184;SDS011;19550;42.872;25.494;2022-09-09T05:03:37;10.80;;;7.78;;
33184;SDS011;19550;42.872;25.494;2022-09-09T05:06:05;12.27;;;7.72;;
33184;SDS011;19550;42.872;25.494;2022-09-09T05:08:33;11.52;;;8.10;;
33184;SDS011;19550;42.872;25.494;2022-09-09T05:11:01;15.93;;;8.65;;
33184;SDS011;19550;42.872;25.494;2022-09-09T05:13:27;14.48;;;7.80;;
33184;SDS011;19550;42.872;25.494;2022-09-09T05:15:56;10.02;;;7.65;;
33184;SDS011;19550;42.872;25.494;2022-09-09T05:18:25;13.15;;;7.55;;
33184;SDS011;19550;42.872;25.494;2022-09-09T05:20:51;11.23;;;7.93;;
33184;SDS011;19550;42.872;25.494;2022-09-09T05:23:18;9.32;;;7.07;;
33184;SDS011;19550;42.872;25.494;2022-09-09T05:25:54;11.45;;;7.10;;
33184;SDS011;19550;42.872;25.494;2022-09-09T05:28:23;11.45;;;7.40;;
33184;SDS011;19550;42.872;25.494;2022-09-09T05:30:57;11.07;;;7.35;;
33184;SDS011;19550;42.872;25.494;2022-09-09T05:33:27;11.25;;;6.88;;
33184;SDS011;19550;42.872;25.494;2022-09-09T05:35:57;12.15;;;6.68;;
33184;SDS011;19550;42.872;25.494;2022-09-09T05:38:25;11.70;;;7.82;;
33184;SDS011;19550;42.872;25.494;2022-09-09T05:40:52;7.25;;;6.50;;
33184;SDS011;19550;42.872;25.494;2022-09-09T05:43:20;8.77;;;6.47;;
33184;SDS011;19550;42.872;25.494;2022-09-09T05:45:47;11.43;;;6.85;;
33184;SDS011;19550;42.872;25.494;2022-09-09T05:48:15;7.90;;;6.38;;
33184;SDS011;19550;42.872;25.494;2022-09-09T05:50:54;12.00;;;6.75;;
33184;SDS011;19550;42.872;25.494;2022-09-09T05:53:21;7.75;;;6.03;;
33184;SDS011;19550;42.872;25.494;2022-09-09T05:55:48;9.68;;;5.93;;
33184;SDS011;19550;42.872;25.494;2022-09-09T05:58:15;11.90;;;7.00;;
33184;SDS011;19550;42.872;25.494;2022-09-09T06:00:42;8.48;;;6.20;;
33184;SDS011;19550;42.872;25.494;2022-09-09T06:03:09;10.27;;;7.18;;
33184;SDS011;19550;42.872;25.494;2022-09-09T06:05:37;8.85;;;7.20;;
33184;SDS011;19550;42.872;25.494;2022-09-09T06:08:06;16.00;;;7.28;;
33184;SDS011;19550;42.872;25.494;2022-09-09T06:10:33;10.40;;;6.10;;
33184;SDS011;19550;42.872;25.494;2022-09-09T06:13:00;8.02;;;5.75;;
33184;SDS011;19550;42.872;25.494;2022-09-09T06:15:27;7.35;;;5.32;;
33184;SDS011;19550;42.872;25.494;2022-09-09T06:17:55;7.03;;;5.53;;
33184;SDS011;19550;42.872;25.494;2022-09-09T06:20:22;6.00;;;5.20;;
33184;SDS011;19550;42.872;25.494;2022-09-09T06:22:49;10.82;;;6.22;;
33184;SDS011;19550;42.872;25.494;2022-09-09T06:25:18;14.27;;;5.95;;
33184;SDS011;19550;42.872;25.494;2022-09-09T06:27:48;11.43;;;5.22;;
33184;SDS011;19550;42.872;25.494;2022-09-09T06:30:16;6.63;;;5.13;;
33184;SDS011;19550;42.872;25.494;2022-09-09T06:32:43;11.05;;;5.18;;
33184;SDS011;19550;42.872;25.494;2022-09-09T06:35:10;6.55;;;4.85;;
33184;SDS011;19550;42.872;25.494;2022-09-09T06:37:38;7.40;;;4.85;;
33184;SDS011;19550;42.872;25.494;2022-09-09T06:40:05;9.27;;;5.13;;
33184;SDS011;19550;42.872;25.494;2022-09-09T06:42:35;9.65;;;5.65;;
33184;SDS011;19550;42.872;25.494;2022-09-09T06:45:01;6.80;;;4.90;;
33184;SDS011;19550;42.872;25.494;2022-09-09T06:47:29;6.72;;;5.13;;
33184;SDS011;19550;42.872;25.494;2022-09-09T06:49:56;13.57;;;5.32;;
33184;SDS011;19550;42.872;25.494;2022-09-09T06:52:23;10.68;;;5.43;;
33184;SDS011;19550;42.872;25.494;2022-09-09T06:54:51;8.18;;;5.03;;
33184;SDS011;19550;42.872;25.494;2022-09-09T06:57:18;12.43;;;5.00;;
33184;SDS011;19550;42.872;25.494;2022-09-09T06:59:47;9.15;;;4.50;;
33184;SDS011;19550;42.872;25.494;2022-09-09T07:02:14;9.95;;;5.90;;
33184;SDS011;19550;42.872;25.494;2022-09-09T07:04:40;8.40;;;4.50;;
33184;SDS011;19550;42.872;25.494;2022-09-09T07:07:08;8.85;;;4.32;;
33184;SDS011;19550;42.872;25.494;2022-09-09T07:09:37;6.78;;;4.43;;
33184;SDS011;19550;42.872;25.494;2022-09-09T07:12:05;7.47;;;4.47;;
33184;SDS011;19550;42.872;25.494;2022-09-09T07:14:32;10.05;;;4.38;;
33184;SDS011;19550;42.872;25.494;2022-09-09T07:17:00;10.57;;;3.95;;
33184;SDS011;19550;42.872;25.494;2022-09-09T07:19:27;7.70;;;3.78;;
33184;SDS011;19550;42.872;25.494;2022-09-09T07:21:54;9.05;;;3.95;;
33184;SDS011;19550;42.872;25.494;2022-09-09T07:24:21;6.90;;;3.70;;
33184;SDS011;19550;42.872;25.494;2022-09-09T07:26:48;6.55;;;3.70;;
33184;SDS011;19550;42.872;25.494;2022-09-09T07:29:14;11.63;;;4.57;;
33184;SDS011;19550;42.872;25.494;2022-09-09T07:31:41;5.40;;;3.55;;
33184;SDS011;19550;42.872;25.494;2022-09-09T07:34:09;4.38;;;3.80;;
33184;SDS011;19550;42.872;25.494;2022-09-09T07:36:37;7.38;;;3.70;;
33184;SDS011;19550;42.872;25.494;2022-09-09T07:39:07;6.05;;;3.47;;
33184;SDS011;19550;42.872;25.494;2022-09-09T07:41:36;6.13;;;3.30;;
33184;SDS011;19550;42.872;25.494;2022-09-09T07:44:05;4.18;;;3.42;;
33184;SDS011;19550;42.872;25.494;2022-09-09T07:46:33;6.05;;;3.60;;
33184;SDS011;19550;42.872;25.494;2022-09-09T07:49:01;9.45;;;3.67;;
33184;SDS011;19550;42.872;25.494;2022-09-09T07:51:30;4.75;;;3.92;;
33184;SDS011;19550;42.872;25.494;2022-09-09T07:54:01;7.85;;;3.80;;
33184;SDS011;19550;42.872;25.494;2022-09-09T07:56:29;4.75;;;3.40;;
33184;SDS011;19550;42.872;25.494;2022-09-09T07:58:57;8.15;;;3.80;;
33184;SDS011;19550;42.872;25.494;2022-09-09T08:01:27;7.07;;;3.95;;
33184;SDS011;19550;42.872;25.494;2022-09-09T08:03:56;3.85;;;3.15;;
33184;SDS011;19550;42.872;25.494;2022-09-09T08:06:26;6.63;;;3.67;;
33184;SDS011;19550;42.872;25.494;2022-09-09T08:08:55;7.80;;;3.63;;
33184;SDS011;19550;42.872;25.494;2022-09-09T08:11:22;4.70;;;3.83;;
33184;SDS011;19550;42.872;25.494;2022-09-09T08:13:51;8.45;;;3.45;;
33184;SDS011;19550;42.872;25.494;2022-09-09T08:16:19;6.75;;;3.30;;
33184;SDS011;19550;42.872;25.494;2022-09-09T08:18:47;6.13;;;3.28;;
33184;SDS011;19550;42.872;25.494;2022-09-09T08:21:15;8.25;;;3.90;;
33184;SDS011;19550;42.872;25.494;2022-09-09T08:23:44;4.35;;;3.20;;
33184;SDS011;19550;42.872;25.494;2022-09-09T08:26:14;5.53;;;3.78;;
33184;SDS011;19550;42.872;25.494;2022-09-09T08:28:42;7.53;;;3.75;;
33184;SDS011;19550;42.872;25.494;2022-09-09T08:31:10;7.35;;;3.60;;
33184;SDS011;19550;42.872;25.494;2022-09-09T08:33:39;6.25;;;3.60;;
33184;SDS011;19550;42.872;25.494;2022-09-09T08:36:08;7.30;;;3.30;;
33184;SDS011;19550;42.872;25.494;2022-09-09T08:41:12;7.60;;;3.45;;
33184;SDS011;19550;42.872;25.494;2022-09-09T08:44:04;8.65;;;3.58;;
33184;SDS011;19550;42.872;25.494;2022-09-09T08:46:36;4.55;;;3.85;;
33184;SDS011;19550;42.872;25.494;2022-09-09T08:49:15;7.53;;;3.75;;
33184;SDS011;19550;42.872;25.494;2022-09-09T08:51:53;10.93;;;4.13;;
33184;SDS011;19550;42.872;25.494;2022-09-09T08:54:22;6.28;;;3.58;;
33184;SDS011;19550;42.872;25.494;2022-09-09T08:56:51;8.73;;;3.95;;
33184;SDS011;19550;42.872;25.494;2022-09-09T08:59:18;8.70;;;3.70;;
33184;SDS011;19550;42.872;25.494;2022-09-09T09:01:54;5.22;;;3.75;;
33184;SDS011;19550;42.872;25.494;2022-09-09T09:04:42;6.93;;;3.80;;
33184;SDS011;19550;42.872;25.494;2022-09-09T09:07:44;5.88;;;3.67;;
33184;SDS011;19550;42.872;25.494;2022-09-09T09:10:22;6.00;;;4.07;;
33184;SDS011;19550;42.872;25.494;2022-09-09T09:13:03;6.93;;;3.42;;
33184;SDS011;19550;42.872;25.494;2022-09-09T09:15:31;7.68;;;3.45;;
33184;SDS011;19550;42.872;25.494;2022-09-09T09:18:03;5.00;;;3.50;;
33184;SDS011;19550;42.872;25.494;2022-09-09T09:20:32;5.78;;;4.13;;
33184;SDS011;19550;42.872;25.494;2022-09-09T09:23:09;8.00;;;4.10;;
33184;SDS011;19550;42.872;25.494;2022-09-09T09:25:45;8.05;;;3.65;;
33184;SDS011;19550;42.872;25.494;2022-09-09T09:28:15;8.15;;;4.00;;
33184;SDS011;19550;42.872;25.494;2022-09-09T09:30:44;8.85;;;3.45;;
33184;SDS011;19550;42.872;25.494;2022-09-09T09:33:17;11.57;;;4.20;;
33184;SDS011;19550;42.872;25.494;2022-09-09T09:35:49;7.32;;;3.83;;
33184;SDS011;19550;42.872;25.494;2022-09-09T09:38:17;4.47;;;3.22;;
33184;SDS011;19550;42.872;25.494;2022-09-09T09:40:50;8.10;;;3.70;;
33184;SDS011;19550;42.872;25.494;2022-09-09T09:43:24;5.10;;;3.97;;
33184;SDS011;19550;42.872;25.494;2022-09-09T09:45:53;9.82;;;4.13;;
33184;SDS011;19550;42.872;25.494;2022-09-09T09:48:22;8.40;;;4.38;;
33184;SDS011;19550;42.872;25.494;2022-09-09T09:50:51;8.75;;;4.30;;
33184;SDS011;19550;42.872;25.494;2022-09-09T09:53:21;6.57;;;3.90;;
33184;SDS011;19550;42.872;25.494;2022-09-09T09:55:53;7.07;;;4.30;;
33184;SDS011;19550;42.872;25.494;2022-09-09T09:58:23;9.60;;;3.97;;
33184;SDS011;19550;42.872;25.494;2022-09-09T10:00:54;9.57;;;4.28;;
33184;SDS011;19550;42.872;25.494;2022-09-09T10:03:22;6.38;;;3.75;;
33184;SDS011;19550;42.872;25.494;2022-09-09T10:05:51;5.78;;;4.00;;
33184;SDS011;19550;42.872;25.494;2022-09-09T10:08:19;6.88;;;3.80;;
33184;SDS011;19550;42.872;25.494;2022-09-09T10:10:49;7.53;;;4.07;;
33184;SDS011;19550;42.872;25.494;2022-09-09T10:13:27;6.75;;;4.03;;
33184;SDS011;19550;42.872;25.494;2022-09-09T10:16:05;4.40;;;3.92;;
33184;SDS011;19550;42.872;25.494;2022-09-09T10:18:47;5.90;;;4.10;;
33184;SDS011;19550;42.872;25.494;2022-09-09T10:21:27;7.40;;;4.32;;
33184;SDS011;19550;42.872;25.494;2022-09-09T10:24:22;10.93;;;4.97;;
33184;SDS011;19550;42.872;25.494;2022-09-09T10:27:11;8.15;;;4.30;;
33184;SDS011;19550;42.872;25.494;2022-09-09T10:32:37;9.77;;;4.20;;
33184;SDS011;19550;42.872;25.494;2022-09-09T10:35:12;6.90;;;4.13;;
33184;SDS011;19550;42.872;25.494;2022-09-09T10:37:58;7.00;;;4.57;;
33184;SDS011;19550;42.872;25.494;2022-09-09T10:40:41;19.90;;;5.27;;
33184;SDS011;19550;42.872;25.494;2022-09-09T10:43:30;7.25;;;4.40;;
33184;SDS011;19550;42.872;25.494;2022-09-09T10:46:28;9.13;;;4.78;;
33184;SDS011;19550;42.872;25.494;2022-09-09T10:49:07;4.75;;;4.05;;
33184;SDS011;19550;42.872;25.494;2022-09-09T10:51:45;11.90;;;4.85;;
33184;SDS011;19550;42.872;25.494;2022-09-09T10:54:25;19.17;;;4.90;;
33184;SDS011;19550;42.872;25.494;2022-09-09T10:57:07;9.93;;;4.60;;
33184;SDS011;19550;42.872;25.494;2022-09-09T10:59:40;9.45;;;4.32;;
33184;SDS011;19550;42.872;25.494;2022-09-09T11:02:15;10.25;;;4.72;;
33184;SDS011;19550;42.872;25.494;2022-09-09T11:04:48;6.72;;;4.38;;
33184;SDS011;19550;42.872;25.494;2022-09-09T11:07:22;7.18;;;4.20;;
33184;SDS011;19550;42.872;25.494;2022-09-09T11:09:56;11.50;;;4.40;;
33184;SDS011;19550;42.872;25.494;2022-09-09T11:12:28;18.77;;;4.85;;
33184;SDS011;19550;42.872;25.494;2022-09-09T11:14:59;8.18;;;4.85;;
33184;SDS011;19550;42.872;25.494;2022-09-09T11:17:33;7.93;;;4.57;;
33184;SDS011;19550;42.872;25.494;2022-09-09T11:20:05;8.77;;;4.70;;
33184;SDS011;19550;42.872;25.494;2022-09-09T11:22:37;14.43;;;4.60;;
33184;SDS011;19550;42.872;25.494;2022-09-09T11:25:14;13.10;;;4.50;;
33184;SDS011;19550;42.872;25.494;2022-09-09T11:27:45;8.32;;;4.30;;
33184;SDS011;19550;42.872;25.494;2022-09-09T11:30:26;12.38;;;4.70;;
33184;SDS011;19550;42.872;25.494;2022-09-09T11:33:03;7.70;;;4.22;;
33184;SDS011;19550;42.872;25.494;2022-09-09T11:35:46;8.32;;;4.10;;
33184;SDS011;19550;42.872;25.494;2022-09-09T11:38:27;9.63;;;4.45;;
33184;SDS011;19550;42.872;25.494;2022-09-09T11:41:00;9.35;;;4.10;;
33184;SDS011;19550;42.872;25.494;2022-09-09T11:43:32;6.85;;;3.90;;
33184;SDS011;19550;42.872;25.494;2022-09-09T11:46:05;7.53;;;3.42;;
33184;SDS011;19550;42.872;25.494;2022-09-09T11:48:34;7.72;;;4.30;;
33184;SDS011;19550;42.872;25.494;2022-09-09T11:51:04;10.18;;;4.47;;
33184;SDS011;19550;42.872;25.494;2022-09-09T11:53:33;9.15;;;4.57;;
33184;SDS011;19550;42.872;25.494;2022-09-09T11:56:10;8.75;;;4.15;;
33184;SDS011;19550;42.872;25.494;2022-09-09T11:58:41;8.30;;;4.32;;
33184;SDS011;19550;42.872;25.494;2022-09-09T12:01:14;9.00;;;4.47;;
33184;SDS011;19550;42.872;25.494;2022-09-09T12:03:55;7.93;;;4.32;;
33184;SDS011;19550;42.872;25.494;2022-09-09T12:06:32;6.70;;;3.60;;
33184;SDS011;19550;42.872;25.494;2022-09-09T12:09:08;9.95;;;3.80;;
33184;SDS011;19550;42.872;25.494;2022-09-09T12:11:43;8.55;;;3.92;;
33184;SDS011;19550;42.872;25.494;2022-09-09T12:14:18;15.38;;;3.92;;
33184;SDS011;19550;42.872;25.494;2022-09-09T12:16:48;8.65;;;3.85;;
33184;SDS011;19550;42.872;25.494;2022-09-09T12:19:18;8.15;;;3.80;;
33184;SDS011;19550;42.872;25.494;2022-09-09T12:21:52;8.70;;;3.60;;
33184;SDS011;19550;42.872;25.494;2022-09-09T12:24:28;6.60;;;3.95;;
33184;SDS011;19550;42.872;25.494;2022-09-09T12:27:05;6.03;;;3.88;;
33184;SDS011;19550;42.872;25.494;2022-09-09T12:29:41;12.35;;;4.35;;
33184;SDS011;19550;42.872;25.494;2022-09-09T12:32:15;17.50;;;4.55;;
33184;SDS011;19550;42.872;25.494;2022-09-09T12:34:48;12.13;;;4.07;;
33184;SDS011;19550;42.872;25.494;2022-09-09T12:37:21;9.52;;;4.30;;
33184;SDS011;19550;42.872;25.494;2022-09-09T12:39:56;12.07;;;4.35;;
33184;SDS011;19550;42.872;25.494;2022-09-09T12:42:24;14.20;;;4.10;;
33184;SDS011;19550;42.872;25.494;2022-09-09T12:44:53;9.38;;;4.47;;
33184;SDS011;19550;42.872;25.494;2022-09-09T12:47:22;11.18;;;4.88;;
33184;SDS011;19550;42.872;25.494;2022-09-09T12:49:55;11.07;;;4.53;;
33184;SDS011;19550;42.872;25.494;2022-09-09T12:52:24;7.38;;;4.50;;
33184;SDS011;19550;42.872;25.494;2022-09-09T12:54:55;8.85;;;4.57;;
33184;SDS011;19550;42.872;25.494;2022-09-09T12:57:23;11.27;;;4.78;;
33184;SDS011;19550;42.872;25.494;2022-09-09T12:59:52;8.50;;;4.45;;
33184;SDS011;19550;42.872;25.494;2022-09-09T13:02:31;12.23;;;5.03;;
33184;SDS011;19550;42.872;25.494;2022-09-09T13:05:08;10.40;;;4.72;;
33184;SDS011;19550;42.872;25.494;2022-09-09T13:07:42;8.00;;;4.65;;
33184;SDS011;19550;42.872;25.494;2022-09-09T13:10:11;8.07;;;4.80;;
33184;SDS011;19550;42.872;25.494;2022-09-09T13:12:38;6.95;;;4.32;;
33184;SDS011;19550;42.872;25.494;2022-09-09T13:15:10;6.65;;;4.43;;
33184;SDS011;19550;42.872;25.494;2022-09-09T13:17:49;13.00;;;5.20;;
33184;SDS011;19550;42.872;25.494;2022-09-09T13:20:22;9.77;;;4.85;;
33184;SDS011;19550;42.872;25.494;2022-09-09T13:22:50;8.77;;;4.50;;
33184;SDS011;19550;42.872;25.494;2022-09-09T13:25:20;11.25;;;5.15;;
33184;SDS011;19550;42.872;25.494;2022-09-09T13:27:51;9.02;;;5.28;;
33184;SDS011;19550;42.872;25.494;2022-09-09T13:30:21;10.93;;;4.90;;
33184;SDS011;19550;42.872;25.494;2022-09-09T13:32:59;13.27;;;5.00;;
33184;SDS011;19550;42.872;25.494;2022-09-09T13:35:28;11.80;;;5.45;;
33184;SDS011;19550;42.872;25.494;2022-09-09T13:37:56;12.65;;;5.10;;
33184;SDS011;19550;42.872;25.494;2022-09-09T13:40:23;10.55;;;5.47;;
33184;SDS011;19550;42.872;25.494;2022-09-09T13:42:51;16.23;;;5.32;;
33184;SDS011;19550;42.872;25.494;2022-09-09T13:45:22;9.63;;;4.50;;
33184;SDS011;19550;42.872;25.494;2022-09-09T13:47:51;9.18;;;5.00;;
33184;SDS011;19550;42.872;25.494;2022-09-09T13:50:21;9.90;;;4.83;;
33184;SDS011;19550;42.872;25.494;2022-09-09T13:52:51;10.25;;;4.80;;
33184;SDS011;19550;42.872;25.494;2022-09-09T13:55:19;14.73;;;5.00;;
33184;SDS011;19550;42.872;25.494;2022-09-09T13:57:51;10.37;;;5.10;;
33184;SDS011;19550;42.872;25.494;2022-09-09T14:00:19;15.90;;;5.47;;
33184;SDS011;19550;42.872;25.494;2022-09-09T14:02:46;11.98;;;5.25;;
33184;SDS011;19550;42.872;25.494;2022-09-09T14:05:13;11.30;;;5.00;;
33184;SDS011;19550;42.872;25.494;2022-09-09T14:07:41;11.95;;;5.20;;
33184;SDS011;19550;42.872;25.494;2022-09-09T14:10:11;11.98;;;4.85;;
33184;SDS011;19550;42.872;25.494;2022-09-09T14:12:38;7.77;;;4.80;;
33184;SDS011;19550;42.872;25.494;2022-09-09T14:15:05;7.60;;;4.72;;
33184;SDS011;19550;42.872;25.494;2022-09-09T14:17:33;11.07;;;4.67;;
33184;SDS011;19550;42.872;25.494;2022-09-09T14:20:01;14.80;;;4.95;;
33184;SDS011;19550;42.872;25.494;2022-09-09T14:22:30;9.50;;;5.10;;
33184;SDS011;19550;42.872;25.494;2022-09-09T14:24:57;9.43;;;5.55;;
33184;SDS011;19550;42.872;25.494;2022-09-09T14:27:25;11.40;;;5.45;;
33184;SDS011;19550;42.872;25.494;2022-09-09T14:29:52;8.85;;;4.88;;
33184;SDS011;19550;42.872;25.494;2022-09-09T14:32:19;10.63;;;5.20;;
33184;SDS011;19550;42.872;25.494;2022-09-09T14:34:47;8.52;;;6.43;;
33184;SDS011;19550;42.872;25.494;2022-09-09T14:37:14;11.68;;;4.93;;
33184;SDS011;19550;42.872;25.494;2022-09-09T14:39:41;13.15;;;5.70;;
33184;SDS011;19550;42.872;25.494;2022-09-09T14:42:09;12.32;;;5.90;;
33184;SDS011;19550;42.872;25.494;2022-09-09T14:44:38;12.52;;;5.18;;
33184;SDS011;19550;42.872;25.494;2022-09-09T14:47:05;11.85;;;5.50;;
33184;SDS011;19550;42.872;25.494;2022-09-09T14:49:33;9.15;;;4.95;;
33184;SDS011;19550;42.872;25.494;2022-09-09T14:52:00;13.43;;;5.60;;
33184;SDS011;19550;42.872;25.494;2022-09-09T14:54:27;17.90;;;10.80;;
33184;SDS011;19550;42.872;25.494;2022-09-09T14:56:54;9.88;;;6.50;;
33184;SDS011;19550;42.872;25.494;2022-09-09T14:59:22;11.43;;;5.18;;